createdAt,value
2018-12-18T00:02:06.918Z,21.87
2018-12-18T00:04:34.400Z,23.53
2018-12-18T00:07:01.907Z,25.40
2018-12-18T00:09:29.415Z,23.57
2018-12-18T00:11:59.347Z,25.90
2018-12-18T00:14:26.602Z,28.43
2018-12-18T00:16:54.179Z,23.10
2018-12-18T00:19:21.664Z,22.37
2018-12-18T00:21:49.157Z,25.13
2018-12-18T00:24:16.704Z,23.73
2018-12-18T00:26:44.183Z,27.90
2018-12-18T00:29:11.679Z,24.80
2018-12-18T00:31:39.313Z,22.17
2018-12-18T00:34:06.818Z,26.37
2018-12-18T00:36:34.311Z,22.57
2018-12-18T00:39:01.823Z,22.47
2018-12-18T00:41:29.746Z,21.90
2018-12-18T00:43:57.240Z,29.03
2018-12-18T00:46:24.788Z,21.30
2018-12-18T00:48:52.280Z,22.20
2018-12-18T00:51:19.775Z,21.70
2018-12-18T00:53:47.287Z,19.97
2018-12-18T00:56:14.779Z,21.43
2018-12-18T00:58:42.275Z,16.87
2018-12-18T01:01:09.856Z,22.13
2018-12-18T01:03:37.348Z,17.40
2018-12-18T01:06:04.888Z,21.97
2018-12-18T01:08:32.411Z,18.43
2018-12-18T01:10:59.931Z,17.47
2018-12-18T01:13:27.438Z,20.70
2018-12-18T01:15:55.402Z,17.80
2018-12-18T01:18:22.878Z,13.67
2018-12-18T01:20:50.377Z,15.93
2018-12-18T01:23:17.879Z,15.67
2018-12-18T01:25:45.427Z,17.80
2018-12-18T01:28:12.906Z,17.67
2018-12-18T01:30:40.419Z,14.47
2018-12-18T01:33:07.903Z,16.23
2018-12-18T01:35:35.383Z,14.43
2018-12-18T01:38:03.490Z,13.13
2018-12-18T01:40:31.015Z,15.70
2018-12-18T01:42:58.507Z,13.13
2018-12-18T01:45:26.071Z,12.50
2018-12-18T01:47:53.564Z,15.40
2018-12-18T01:50:21.053Z,14.10
2018-12-18T01:52:48.569Z,14.27
2018-12-18T01:55:16.044Z,13.80
2018-12-18T01:57:44.448Z,16.73
2018-12-18T02:00:11.952Z,11.23
2018-12-18T02:02:39.447Z,12.97
2018-12-18T02:05:07.024Z,11.43
2018-12-18T02:07:34.514Z,13.53
2018-12-18T02:10:02.057Z,12.77
2018-12-18T02:12:29.593Z,13.70
2018-12-18T02:14:57.296Z,11.57
2018-12-18T02:17:24.793Z,15.80
2018-12-18T02:19:52.923Z,13.40
2018-12-18T02:22:20.398Z,12.27
2018-12-18T02:24:47.881Z,10.93
2018-12-18T02:27:15.403Z,14.33
2018-12-18T02:29:43.319Z,12.50
2018-12-18T02:32:10.812Z,12.90
2018-12-18T02:34:38.333Z,12.50
2018-12-18T02:37:05.820Z,11.57
2018-12-18T02:39:33.724Z,11.00
2018-12-18T02:42:01.280Z,11.70
2018-12-18T02:44:28.792Z,13.03
2018-12-18T02:46:56.319Z,12.37
2018-12-18T02:49:24.026Z,12.00
2018-12-18T02:51:51.528Z,12.13
2018-12-18T02:54:19.006Z,12.50
2018-12-18T02:56:46.519Z,10.83
2018-12-18T02:59:14.083Z,11.90
2018-12-18T03:01:41.627Z,17.17
2018-12-18T03:04:09.205Z,12.17
2018-12-18T03:06:36.799Z,13.77
2018-12-18T03:09:05.735Z,12.67
2018-12-18T03:11:33.280Z,13.70
2018-12-18T03:14:00.760Z,11.90
2018-12-18T03:16:28.248Z,15.23
2018-12-18T03:18:55.808Z,14.20
2018-12-18T03:21:23.366Z,11.73
2018-12-18T03:23:50.856Z,16.57
2018-12-18T03:26:18.379Z,12.83
2018-12-18T03:28:45.867Z,18.27
2018-12-18T03:31:13.424Z,13.63
2018-12-18T03:33:40.926Z,12.47
2018-12-18T03:36:08.424Z,16.83
2018-12-18T03:38:35.912Z,10.97
2018-12-18T03:41:03.491Z,14.43
2018-12-18T03:43:30.987Z,12.90
2018-12-18T03:45:58.472Z,12.23
2018-12-18T03:48:26.139Z,14.87
2018-12-18T03:50:53.631Z,14.70
2018-12-18T03:53:21.122Z,12.37
2018-12-18T03:55:49.231Z,14.87
2018-12-18T03:58:16.719Z,16.93
2018-12-18T04:00:44.826Z,14.73
2018-12-18T04:03:12.347Z,14.30
2018-12-18T04:05:39.839Z,14.30
2018-12-18T04:08:07.353Z,15.93
2018-12-18T04:10:34.878Z,16.13
2018-12-18T04:13:02.374Z,14.27
2018-12-18T04:15:30.645Z,12.67
2018-12-18T04:17:58.222Z,11.70
2018-12-18T04:20:25.709Z,12.03
2018-12-18T04:22:53.188Z,12.43
2018-12-18T04:25:20.700Z,15.27
2018-12-18T04:27:48.194Z,14.47
2018-12-18T04:30:15.668Z,10.87
2018-12-18T04:32:43.179Z,13.40
2018-12-18T04:35:10.668Z,12.13
2018-12-18T04:37:38.160Z,9.47
2018-12-18T04:40:07.710Z,11.70
2018-12-18T04:42:35.187Z,11.30
2018-12-18T04:45:02.803Z,12.57
2018-12-18T04:47:30.319Z,9.53
2018-12-18T04:49:57.812Z,12.80
2018-12-18T04:52:25.298Z,11.70
2018-12-18T04:54:52.843Z,12.00
2018-12-18T04:57:20.328Z,9.57
2018-12-18T04:59:47.816Z,11.67
2018-12-18T05:02:15.366Z,11.60
2018-12-18T05:04:50.020Z,9.57
2018-12-18T05:07:12.392Z,12.33
2018-12-18T05:09:39.869Z,12.60
2018-12-18T05:12:07.351Z,9.43
2018-12-18T05:14:34.852Z,10.97
2018-12-18T05:17:02.359Z,13.17
2018-12-18T05:19:29.863Z,13.73
2018-12-18T05:21:57.651Z,13.10
2018-12-18T05:24:25.142Z,16.47
2018-12-18T05:26:52.689Z,15.30
2018-12-18T05:29:20.191Z,8.77
2018-12-18T05:31:47.724Z,11.80
2018-12-18T05:34:15.208Z,13.37
2018-12-18T05:36:42.750Z,9.30
2018-12-18T05:39:10.231Z,10.57
2018-12-18T05:41:37.719Z,10.90
2018-12-18T05:44:05.231Z,11.03
2018-12-18T05:46:32.737Z,13.33
2018-12-18T05:49:00.219Z,9.60
2018-12-18T05:51:27.735Z,11.47
2018-12-18T05:53:55.222Z,8.80
2018-12-18T05:56:22.712Z,9.47
2018-12-18T05:58:50.215Z,11.20
2018-12-18T06:01:17.707Z,10.93
2018-12-18T06:03:45.321Z,13.00
2018-12-18T06:06:12.829Z,9.90
2018-12-18T06:08:40.319Z,10.97
2018-12-18T06:11:07.821Z,13.67
2018-12-18T06:13:35.442Z,14.00
2018-12-18T06:16:02.951Z,10.97
2018-12-18T06:18:30.503Z,12.60
2018-12-18T06:20:58.095Z,8.23
2018-12-18T06:23:26.276Z,13.20
2018-12-18T06:25:53.764Z,13.00
2018-12-18T06:28:21.303Z,8.97
2018-12-18T06:30:48.778Z,10.43
2018-12-18T06:33:16.267Z,11.47
2018-12-18T06:35:43.774Z,12.10
2018-12-18T06:38:11.250Z,12.30
2018-12-18T06:40:38.759Z,9.90
2018-12-18T06:43:06.267Z,10.73
2018-12-18T06:45:33.763Z,7.53
2018-12-18T06:48:01.247Z,9.97
2018-12-18T06:50:28.852Z,14.30
2018-12-18T06:52:56.339Z,14.03
2018-12-18T06:55:23.870Z,11.47
2018-12-18T06:57:51.695Z,9.90
2018-12-18T07:00:19.175Z,10.73
2018-12-18T07:02:46.671Z,10.07
2018-12-18T07:05:16.983Z,9.37
2018-12-18T07:07:44.496Z,9.80
2018-12-18T07:10:12.039Z,11.23
2018-12-18T07:12:39.546Z,8.30
2018-12-18T07:15:07.032Z,10.20
2018-12-18T07:17:34.584Z,9.87
2018-12-18T07:20:02.274Z,12.03
2018-12-18T07:22:29.754Z,10.63
2018-12-18T07:24:57.266Z,9.97
2018-12-18T07:27:25.214Z,12.07
2018-12-18T07:29:52.695Z,9.17
2018-12-18T07:32:20.188Z,10.90
2018-12-18T07:34:47.721Z,10.53
2018-12-18T07:37:15.793Z,9.43
2018-12-18T07:39:43.304Z,12.17
2018-12-18T07:42:10.811Z,9.77
2018-12-18T07:44:38.293Z,10.83
2018-12-18T07:47:05.783Z,11.60
2018-12-18T07:49:33.359Z,9.63
2018-12-18T07:52:00.848Z,7.93
2018-12-18T07:54:28.326Z,12.10
2018-12-18T07:56:55.839Z,7.87
2018-12-18T07:59:23.324Z,8.03
2018-12-18T08:01:50.820Z,11.27
2018-12-18T08:04:18.327Z,8.40
2018-12-18T08:06:45.875Z,12.67
2018-12-18T08:09:13.363Z,12.60
2018-12-18T08:11:40.907Z,16.83
2018-12-18T08:14:08.395Z,11.77
2018-12-18T08:16:35.993Z,14.47
2018-12-18T08:19:03.511Z,13.60
2018-12-18T08:21:31.062Z,16.80
2018-12-18T08:23:58.555Z,15.03
2018-12-18T08:26:26.063Z,13.60
2018-12-18T08:28:53.551Z,13.53
2018-12-18T08:31:21.037Z,10.63
2018-12-18T08:33:48.615Z,11.93
2018-12-18T08:36:16.091Z,10.27
2018-12-18T08:38:43.582Z,9.23
2018-12-18T08:41:11.152Z,13.73
2018-12-18T08:43:38.648Z,12.77
2018-12-18T08:46:10.130Z,9.93
2018-12-18T08:48:35.694Z,6.63
2018-12-18T08:51:03.176Z,8.83
2018-12-18T08:53:30.665Z,9.43
2018-12-18T08:55:58.198Z,7.87
2018-12-18T08:58:25.689Z,9.87
2018-12-18T09:00:53.175Z,10.20
2018-12-18T09:03:20.719Z,9.50
2018-12-18T09:05:48.263Z,9.53
2018-12-18T09:08:15.752Z,9.07
2018-12-18T09:10:43.279Z,9.40
2018-12-18T09:13:10.755Z,7.00
2018-12-18T09:15:43.999Z,8.90
2018-12-18T09:18:11.543Z,5.57
2018-12-18T09:20:39.028Z,7.30
2018-12-18T09:23:06.549Z,9.70
2018-12-18T09:25:34.056Z,10.70
2018-12-18T09:28:01.583Z,6.97
2018-12-18T09:30:29.073Z,7.33
2018-12-18T09:32:56.555Z,9.73
2018-12-18T09:35:24.109Z,9.97
2018-12-18T09:37:53.631Z,8.87
2018-12-18T09:40:21.293Z,8.07
2018-12-18T09:42:54.399Z,8.60
2018-12-18T09:45:21.891Z,9.57
2018-12-18T09:47:49.398Z,6.50
2018-12-18T09:50:16.901Z,8.57
2018-12-18T09:52:44.378Z,9.63
2018-12-18T09:55:11.868Z,7.47
2018-12-18T09:57:44.972Z,11.20
2018-12-18T10:00:12.459Z,7.73
2018-12-18T10:02:39.948Z,7.03
2018-12-18T10:05:07.528Z,12.63
2018-12-18T10:07:35.013Z,8.47
2018-12-18T10:10:02.546Z,12.67
2018-12-18T10:12:35.650Z,13.10
2018-12-18T10:15:03.261Z,9.63
2018-12-18T10:17:30.758Z,8.90
2018-12-18T10:19:58.283Z,8.53
2018-12-18T10:22:25.759Z,6.47
2018-12-18T10:24:53.279Z,8.67
2018-12-18T10:27:20.788Z,8.33
2018-12-18T10:29:48.289Z,9.57
2018-12-18T10:32:15.834Z,9.23
2018-12-18T10:34:43.343Z,9.13
2018-12-18T10:37:10.840Z,10.47
2018-12-18T10:39:38.319Z,8.53
2018-12-18T10:42:05.831Z,7.63
2018-12-18T10:44:33.318Z,8.40
2018-12-18T10:47:00.798Z,6.73
2018-12-18T10:49:28.306Z,7.30
2018-12-18T10:51:56.491Z,10.10
2018-12-18T10:54:23.988Z,7.93
2018-12-18T10:56:51.571Z,5.93
2018-12-18T10:59:19.102Z,6.40
2018-12-18T11:01:47.156Z,7.40
2018-12-18T11:04:14.663Z,7.93
2018-12-18T11:06:42.229Z,7.13
2018-12-18T11:09:09.879Z,6.90
2018-12-18T11:11:37.841Z,6.70
2018-12-18T11:14:05.432Z,7.17
2018-12-18T11:16:37.249Z,5.53
2018-12-18T11:19:02.459Z,7.27
2018-12-18T11:21:29.943Z,6.43
2018-12-18T11:23:57.471Z,6.20
2018-12-18T11:26:24.991Z,7.77
2018-12-18T11:28:52.476Z,5.50
2018-12-18T11:31:19.989Z,6.00
2018-12-18T11:33:47.567Z,7.20
2018-12-18T11:36:16.667Z,6.87
2018-12-18T11:38:44.408Z,7.30
2018-12-18T11:41:11.922Z,5.53
2018-12-18T11:43:39.491Z,6.53
2018-12-18T11:46:06.966Z,5.90
2018-12-18T11:48:34.480Z,7.57
2018-12-18T11:51:01.959Z,5.97
2018-12-18T11:53:29.509Z,7.00
2018-12-18T11:55:57.010Z,7.03
2018-12-18T11:58:24.504Z,4.73
2018-12-18T12:00:52.078Z,7.30
2018-12-18T12:03:19.649Z,7.93
2018-12-18T12:05:47.143Z,6.00
2018-12-18T12:08:14.631Z,7.17
2018-12-18T12:10:42.140Z,4.17
2018-12-18T12:13:09.648Z,6.23
2018-12-18T12:15:37.162Z,6.90
2018-12-18T12:18:04.672Z,7.57
2018-12-18T12:20:32.179Z,7.07
2018-12-18T12:22:59.781Z,5.47
2018-12-18T12:25:27.293Z,7.50
2018-12-18T12:28:00.344Z,6.40
2018-12-18T12:30:27.907Z,4.90
2018-12-18T12:32:55.388Z,5.80
2018-12-18T12:35:22.868Z,8.77
2018-12-18T12:37:50.383Z,6.60
2018-12-18T12:40:17.859Z,8.03
2018-12-18T12:42:46.347Z,6.70
2018-12-18T12:45:13.866Z,6.63
2018-12-18T12:47:43.325Z,7.53
2018-12-18T12:50:11.413Z,6.17
2018-12-18T12:52:38.909Z,4.73
2018-12-18T12:55:06.536Z,7.70
2018-12-18T12:57:34.019Z,5.80
2018-12-18T13:00:01.608Z,6.90
2018-12-18T13:02:29.134Z,6.37
2018-12-18T13:04:56.624Z,7.40
2018-12-18T13:07:24.115Z,7.23
2018-12-18T13:09:51.619Z,7.17
2018-12-18T13:12:19.103Z,6.67
2018-12-18T13:14:46.578Z,5.00
2018-12-18T13:17:14.122Z,4.33
2018-12-18T13:19:41.601Z,5.53
2018-12-18T13:22:09.082Z,7.90
2018-12-18T13:24:36.587Z,6.57
2018-12-18T13:27:04.095Z,6.80
2018-12-18T13:29:31.931Z,5.70
2018-12-18T13:31:59.517Z,6.63
2018-12-18T13:34:26.995Z,5.67
2018-12-18T13:36:54.484Z,6.23
2018-12-18T13:39:22.059Z,5.57
2018-12-18T13:41:49.649Z,4.20
2018-12-18T13:44:17.171Z,5.10
2018-12-18T13:46:44.751Z,5.73
2018-12-18T13:49:12.228Z,5.87
2018-12-18T13:51:39.710Z,7.23
2018-12-18T13:54:07.314Z,5.43
2018-12-18T13:56:34.795Z,5.43
2018-12-18T13:59:02.275Z,6.17
2018-12-18T14:01:29.791Z,8.27
2018-12-18T14:03:57.401Z,8.50
2018-12-18T14:06:24.878Z,7.47
2018-12-18T14:08:52.407Z,6.97
2018-12-18T14:11:19.894Z,6.07
2018-12-18T14:13:47.479Z,6.27
2018-12-18T14:16:14.975Z,5.70
2018-12-18T14:18:42.460Z,6.10
2018-12-18T14:21:10.007Z,9.23
2018-12-18T14:23:37.611Z,5.00
2018-12-18T14:26:05.112Z,5.87
2018-12-18T14:28:33.196Z,4.97
2018-12-18T14:31:00.705Z,5.60
2018-12-18T14:33:28.190Z,5.17
2018-12-18T14:35:55.666Z,6.13
2018-12-18T14:38:23.436Z,6.43
2018-12-18T14:40:50.923Z,6.90
2018-12-18T14:43:18.411Z,7.40
2018-12-18T14:45:46.571Z,6.87
2018-12-18T14:48:14.058Z,6.13
2018-12-18T14:50:41.563Z,6.00
2018-12-18T14:53:09.063Z,6.80
2018-12-18T14:55:36.562Z,7.77
2018-12-18T14:58:04.116Z,6.47
2018-12-18T15:00:31.631Z,6.00
2018-12-18T15:02:59.139Z,6.60
2018-12-18T15:05:26.641Z,8.23
2018-12-18T15:07:54.139Z,8.03
2018-12-18T15:10:21.633Z,5.13
2018-12-18T15:12:49.376Z,3.83
2018-12-18T15:15:17.155Z,5.97
2018-12-18T15:17:44.712Z,6.67
2018-12-18T15:20:12.229Z,5.87
2018-12-18T15:22:39.747Z,5.50
2018-12-18T15:25:07.367Z,7.57
2018-12-18T15:27:34.870Z,6.07
2018-12-18T15:30:02.455Z,5.63
2018-12-18T15:32:30.097Z,5.60
2018-12-18T15:34:57.590Z,5.40
2018-12-18T15:37:25.123Z,6.80
2018-12-18T15:39:52.625Z,7.83
2018-12-18T15:42:20.104Z,7.43
2018-12-18T15:44:47.688Z,5.67
2018-12-18T15:47:15.175Z,7.07
2018-12-18T15:49:42.704Z,6.90
2018-12-18T15:52:10.203Z,7.47
2018-12-18T15:54:37.697Z,6.87
2018-12-18T15:57:05.779Z,5.33
2018-12-18T15:59:33.292Z,5.37
2018-12-18T16:02:00.816Z,4.93
2018-12-18T16:04:28.375Z,10.23
2018-12-18T16:06:55.916Z,7.73
2018-12-18T16:09:23.407Z,6.87
2018-12-18T16:11:50.915Z,7.70
2018-12-18T16:14:18.436Z,7.33
2018-12-18T16:16:45.924Z,6.77
2018-12-18T16:19:13.422Z,9.67
2018-12-18T16:21:41.142Z,9.60
2018-12-18T16:24:08.706Z,8.17
2018-12-18T16:26:36.198Z,8.77
2018-12-18T16:29:03.703Z,7.50
2018-12-18T16:31:31.336Z,6.30
2018-12-18T16:33:58.838Z,6.97
2018-12-18T16:36:26.348Z,10.30
2018-12-18T16:38:53.831Z,7.27
2018-12-18T16:41:21.399Z,9.73
2018-12-18T16:43:48.922Z,10.57
2018-12-18T16:46:16.402Z,6.97
2018-12-18T16:48:43.899Z,8.40
2018-12-18T16:51:11.516Z,9.27
2018-12-18T16:53:39.002Z,7.17
2018-12-18T16:56:06.477Z,6.60
2018-12-18T16:58:34.816Z,10.63
2018-12-18T17:01:02.297Z,11.53
2018-12-18T17:03:29.772Z,7.93
2018-12-18T17:05:57.324Z,10.03
2018-12-18T17:08:24.809Z,9.83
2018-12-18T17:10:52.341Z,10.07
2018-12-18T17:13:19.879Z,9.40
2018-12-18T17:15:47.363Z,4.90
2018-12-18T17:18:14.867Z,9.93
2018-12-18T17:20:42.413Z,8.90
2018-12-18T17:23:10.728Z,8.10
2018-12-18T17:25:38.315Z,8.63
2018-12-18T17:28:05.835Z,11.83
2018-12-18T17:30:33.319Z,8.27
2018-12-18T17:33:00.814Z,7.23
2018-12-18T17:35:28.327Z,9.17
2018-12-18T17:37:55.815Z,6.43
2018-12-18T17:40:23.305Z,9.13
2018-12-18T17:42:50.827Z,6.63
2018-12-18T17:45:18.339Z,9.17
2018-12-18T17:47:45.825Z,5.67
2018-12-18T17:50:13.338Z,5.20
2018-12-18T17:52:40.815Z,8.17
2018-12-18T17:55:08.310Z,6.43
2018-12-18T17:57:35.826Z,9.47
2018-12-18T18:00:04.124Z,8.80
2018-12-18T18:02:31.619Z,6.27
2018-12-18T18:04:59.147Z,8.63
2018-12-18T18:07:26.635Z,8.30
2018-12-18T18:09:54.141Z,9.40
2018-12-18T18:12:21.656Z,7.77
2018-12-18T18:14:49.203Z,8.67
2018-12-18T18:17:16.740Z,7.37
2018-12-18T18:19:44.271Z,8.03
2018-12-18T18:22:11.771Z,6.90
2018-12-18T18:24:39.274Z,6.33
2018-12-18T18:27:07.672Z,7.40
2018-12-18T18:29:35.174Z,10.37
2018-12-18T18:32:02.666Z,6.20
2018-12-18T18:34:30.192Z,8.40
2018-12-18T18:36:57.865Z,7.60
2018-12-18T18:39:25.336Z,7.27
2018-12-18T18:41:52.843Z,6.57
2018-12-18T18:44:20.332Z,8.87
2018-12-18T18:46:47.939Z,7.57
2018-12-18T18:49:15.483Z,5.83
2018-12-18T18:51:42.988Z,6.37
2018-12-18T18:54:10.468Z,6.87
2018-12-18T18:56:37.989Z,5.50
2018-12-18T18:59:05.478Z,7.63
2018-12-18T19:01:33.435Z,6.20
2018-12-18T19:04:01.104Z,4.40
2018-12-18T19:06:28.856Z,7.03
2018-12-18T19:08:56.375Z,5.17
2018-12-18T19:11:23.878Z,6.00
2018-12-18T19:13:51.374Z,6.30
2018-12-18T19:16:18.896Z,5.57
2018-12-18T19:18:47.534Z,5.13
2018-12-18T19:21:15.240Z,7.67
2018-12-18T19:23:42.719Z,6.47
2018-12-18T19:26:10.262Z,6.20
2018-12-18T19:28:37.863Z,4.87
2018-12-18T19:31:05.401Z,7.37
2018-12-18T19:33:36.798Z,5.70
2018-12-18T19:36:02.449Z,5.60
2018-12-18T19:38:29.960Z,5.70
2018-12-18T19:40:57.547Z,7.83
2018-12-18T19:43:25.055Z,7.43
2018-12-18T19:45:52.574Z,7.03
2018-12-18T19:48:20.684Z,4.77
2018-12-18T19:50:48.176Z,5.87
2018-12-18T19:53:15.684Z,5.80
2018-12-18T19:55:43.202Z,5.03
2018-12-18T19:58:10.679Z,7.50
2018-12-18T20:00:38.197Z,5.20
2018-12-18T20:03:05.688Z,5.57
2018-12-18T20:05:33.304Z,6.47
2018-12-18T20:08:00.871Z,5.60
2018-12-18T20:10:28.351Z,6.27
2018-12-18T20:12:55.835Z,6.20
2018-12-18T20:15:23.389Z,6.30
2018-12-18T20:17:50.902Z,6.63
2018-12-18T20:20:18.513Z,7.13
2018-12-18T20:22:46.010Z,5.47
2018-12-18T20:25:13.537Z,5.47
2018-12-18T20:27:41.025Z,6.47
2018-12-18T20:30:08.650Z,6.53
2018-12-18T20:32:36.229Z,7.30
2018-12-18T20:35:03.875Z,5.50
2018-12-18T20:37:32.155Z,4.70
2018-12-18T20:39:59.702Z,8.57
2018-12-18T20:42:27.260Z,7.97
2018-12-18T20:44:55.476Z,6.27
2018-12-18T20:47:22.983Z,5.37
2018-12-18T20:49:50.479Z,6.53
2018-12-18T20:52:18.086Z,5.87
2018-12-18T20:54:45.683Z,6.27
2018-12-18T20:57:13.204Z,5.67
2018-12-18T20:59:40.697Z,6.03
2018-12-18T21:02:09.163Z,5.33
2018-12-18T21:04:37.986Z,5.67
2018-12-18T21:07:05.845Z,6.97
2018-12-18T21:09:33.339Z,5.77
2018-12-18T21:12:00.832Z,5.33
2018-12-18T21:14:28.315Z,7.10
2018-12-18T21:16:55.953Z,6.97
2018-12-18T21:19:23.440Z,5.13
2018-12-18T21:21:51.013Z,6.43
2018-12-18T21:24:18.625Z,5.63
2018-12-18T21:26:46.103Z,6.10
2018-12-18T21:29:13.597Z,5.60
2018-12-18T21:31:41.236Z,5.57
2018-12-18T21:34:10.097Z,6.83
2018-12-18T21:36:37.940Z,6.33
2018-12-18T21:39:07.488Z,8.77
2018-12-18T21:41:35.060Z,5.93
2018-12-18T21:44:03.080Z,5.87
2018-12-18T21:46:31.225Z,5.17
2018-12-18T21:48:59.948Z,6.17
2018-12-18T21:51:27.491Z,8.13
2018-12-18T21:53:55.023Z,5.63
2018-12-18T21:56:22.505Z,5.63
2018-12-18T21:58:50.004Z,5.27
2018-12-18T22:01:17.559Z,7.40
2018-12-18T22:03:45.035Z,6.93
2018-12-18T22:06:12.516Z,7.07
2018-12-18T22:08:40.038Z,5.80
2018-12-18T22:11:07.640Z,6.37
2018-12-18T22:13:35.182Z,8.07
2018-12-18T22:16:02.703Z,5.77
2018-12-18T22:18:30.187Z,7.57
2018-12-18T22:20:57.660Z,6.63
2018-12-18T22:23:25.168Z,6.73
2018-12-18T22:25:52.666Z,6.07
2018-12-18T22:28:20.144Z,5.73
2018-12-18T22:30:47.767Z,8.07
2018-12-18T22:33:15.245Z,5.93
2018-12-18T22:35:42.721Z,7.07
2018-12-18T22:38:10.254Z,5.80
2018-12-18T22:40:37.745Z,5.50
2018-12-18T22:43:05.222Z,4.93
2018-12-18T22:45:32.727Z,5.17
2018-12-18T22:48:00.219Z,6.37
2018-12-18T22:50:27.805Z,5.30
2018-12-18T22:52:55.318Z,6.13
2018-12-18T22:55:22.836Z,9.43
2018-12-18T22:57:50.356Z,5.80
2018-12-18T23:00:23.878Z,6.03
2018-12-18T23:02:51.376Z,5.90
2018-12-18T23:05:18.864Z,7.03
2018-12-18T23:07:46.397Z,8.50
2018-12-18T23:10:13.882Z,7.00
2018-12-18T23:12:41.364Z,5.60
2018-12-18T23:15:08.945Z,6.73
2018-12-18T23:17:36.434Z,4.70
2018-12-18T23:20:05.150Z,5.90
2018-12-18T23:22:32.765Z,4.80
2018-12-18T23:25:00.247Z,5.83
2018-12-18T23:27:28.320Z,4.93
2018-12-18T23:29:55.864Z,4.63
2018-12-18T23:32:23.348Z,5.33
2018-12-18T23:34:50.828Z,5.20
2018-12-18T23:37:18.344Z,5.17
2018-12-18T23:39:45.901Z,5.53
2018-12-18T23:42:13.375Z,4.83
2018-12-18T23:44:40.899Z,6.77
2018-12-18T23:47:08.380Z,4.93
2018-12-18T23:49:36.097Z,4.83
2018-12-18T23:52:03.730Z,6.00
2018-12-18T23:54:31.216Z,7.43
2018-12-18T23:56:58.704Z,6.43
2018-12-18T23:59:26.215Z,6.40
